createdAt,value
2022-08-20T00:00:38.320Z,14.65
2022-08-20T00:03:16.860Z,15.05
2022-08-20T00:05:47.533Z,14.63
2022-08-20T00:08:14.676Z,14.45
2022-08-20T00:10:44.147Z,14.07
2022-08-20T00:13:18.266Z,13.63
2022-08-20T00:15:45.504Z,13.52
2022-08-20T00:18:12.601Z,13.48
2022-08-20T00:20:44.872Z,12.50
2022-08-20T00:23:11.954Z,13.48
2022-08-20T00:25:38.675Z,13.30
2022-08-20T00:28:07.161Z,13.90
2022-08-20T00:30:35.067Z,13.05
2022-08-20T00:33:08.437Z,13.55
2022-08-20T00:35:40.139Z,12.45
2022-08-20T00:38:06.815Z,13.52
2022-08-20T00:40:56.331Z,14.13
2022-08-20T00:43:39.147Z,13.65
2022-08-20T00:46:14.933Z,12.95
2022-08-20T00:48:44.377Z,13.07
2022-08-20T00:51:22.805Z,13.15
2022-08-20T00:53:49.514Z,13.38
2022-08-20T00:56:16.121Z,12.75
2022-08-20T00:58:45.270Z,12.38
2022-08-20T01:01:12.133Z,12.60
2022-08-20T01:03:39.914Z,12.70
2022-08-20T01:06:06.766Z,12.57
2022-08-20T01:08:33.345Z,13.05
2022-08-20T01:11:09.775Z,12.57
2022-08-20T01:13:38.838Z,12.25
2022-08-20T01:16:12.914Z,11.95
2022-08-20T01:18:39.592Z,13.45
2022-08-20T01:21:07.109Z,12.30
2022-08-20T01:24:00.957Z,13.73
2022-08-20T01:26:31.637Z,13.63
2022-08-20T01:29:05.276Z,13.77
2022-08-20T01:31:34.385Z,14.07
2022-08-20T01:34:02.237Z,13.73
2022-08-20T01:36:45.944Z,15.02
2022-08-20T01:39:16.455Z,13.10
2022-08-20T01:41:58.090Z,14.98
2022-08-20T01:44:25.062Z,15.15
2022-08-20T01:46:55.309Z,14.85
2022-08-20T01:49:32.779Z,16.80
2022-08-20T01:52:02.824Z,15.48
2022-08-20T01:54:29.461Z,15.77
2022-08-20T01:57:00.956Z,15.05
2022-08-20T01:59:27.903Z,16.38
2022-08-20T02:01:55.600Z,16.92
2022-08-20T02:04:22.614Z,17.55
2022-08-20T02:06:57.497Z,18.58
2022-08-20T02:09:26.749Z,16.67
2022-08-20T02:11:53.591Z,16.85
2022-08-20T02:14:20.609Z,17.75
2022-08-20T02:16:54.799Z,17.00
2022-08-20T02:19:38.521Z,17.17
2022-08-20T02:22:20.278Z,16.25
2022-08-20T02:24:48.456Z,17.70
2022-08-20T02:27:15.293Z,16.40
2022-08-20T02:29:42.041Z,17.35
2022-08-20T02:32:24.375Z,18.13
2022-08-20T02:34:55.785Z,19.00
2022-08-20T02:37:22.318Z,18.48
2022-08-20T02:39:49.119Z,20.20
2022-08-20T02:42:17.013Z,21.17
2022-08-20T02:44:43.750Z,18.95
2022-08-20T02:47:10.287Z,20.40
2022-08-20T02:49:36.906Z,19.38
2022-08-20T02:52:03.835Z,20.13
2022-08-20T02:54:30.436Z,19.48
2022-08-20T02:56:56.988Z,20.42
2022-08-20T02:59:23.579Z,20.58
2022-08-20T03:01:59.881Z,21.92
2022-08-20T03:04:30.498Z,20.95
2022-08-20T03:06:57.679Z,21.95
2022-08-20T03:09:24.498Z,22.08
2022-08-20T03:11:51.442Z,23.00
2022-08-20T03:14:18.010Z,24.85
2022-08-20T03:16:44.604Z,22.77
2022-08-20T03:19:11.249Z,25.75
2022-08-20T03:21:37.809Z,26.70
2022-08-20T03:24:04.549Z,27.00
2022-08-20T03:26:31.351Z,26.92
2022-08-20T03:28:57.908Z,25.05
2022-08-20T03:31:24.443Z,26.02
2022-08-20T03:33:53.636Z,25.92
2022-08-20T03:36:27.917Z,26.17
2022-08-20T03:38:57.636Z,25.95
2022-08-20T03:41:24.502Z,26.45
2022-08-20T03:43:51.566Z,26.70
2022-08-20T03:46:23.185Z,27.83
2022-08-20T03:48:52.419Z,26.83
2022-08-20T03:51:30.001Z,26.45
2022-08-20T03:53:56.745Z,26.92
2022-08-20T03:56:23.402Z,27.45
2022-08-20T03:58:50.221Z,27.20
2022-08-20T04:01:45.438Z,27.83
2022-08-20T04:04:03.780Z,27.77
2022-08-20T04:06:30.641Z,27.77
2022-08-20T04:08:58.283Z,26.30
2022-08-20T04:11:24.923Z,27.80
2022-08-20T04:13:51.761Z,27.10
2022-08-20T04:16:19.478Z,27.48
2022-08-20T04:19:02.031Z,27.10
2022-08-20T04:21:35.758Z,26.27
2022-08-20T04:24:04.451Z,26.95
2022-08-20T04:26:31.775Z,26.05
2022-08-20T04:28:58.517Z,25.50
2022-08-20T04:31:25.607Z,25.77
2022-08-20T04:33:52.408Z,24.95
2022-08-20T04:36:18.940Z,24.98
2022-08-20T04:38:50.028Z,25.73
2022-08-20T04:41:23.252Z,26.55
2022-08-20T04:43:51.717Z,26.50
2022-08-20T04:46:19.424Z,24.77
2022-08-20T04:48:49.037Z,27.17
2022-08-20T04:51:16.720Z,26.90
2022-08-20T04:53:43.229Z,25.92
2022-08-20T04:56:09.974Z,26.95
2022-08-20T04:58:39.403Z,26.30
2022-08-20T05:01:08.974Z,25.70
2022-08-20T05:03:39.225Z,25.95
2022-08-20T05:06:07.832Z,25.88
2022-08-20T05:08:35.953Z,26.38
2022-08-20T05:11:34.735Z,25.70
2022-08-20T05:13:52.993Z,25.20
2022-08-20T05:16:20.147Z,26.48
2022-08-20T05:18:50.538Z,25.35
2022-08-20T05:21:19.866Z,25.33
2022-08-20T05:23:46.598Z,27.27
2022-08-20T05:26:13.227Z,26.92
2022-08-20T05:28:49.989Z,24.60
2022-08-20T05:31:31.777Z,25.35
2022-08-20T05:34:12.032Z,25.10
2022-08-20T05:36:44.810Z,25.52
2022-08-20T05:39:13.519Z,25.70
2022-08-20T05:41:40.774Z,25.40
2022-08-20T05:44:13.682Z,25.77
2022-08-20T05:46:42.841Z,25.05
2022-08-20T05:49:14.435Z,25.80
2022-08-20T05:51:41.162Z,26.30
2022-08-20T05:54:07.905Z,25.73
2022-08-20T05:56:36.054Z,24.67
2022-08-20T05:59:04.948Z,23.88
2022-08-20T06:01:32.650Z,24.08
2022-08-20T06:04:18.077Z,23.83
2022-08-20T06:06:47.078Z,23.10
2022-08-20T06:09:31.158Z,24.95
2022-08-20T06:12:03.114Z,24.92
2022-08-20T06:14:30.156Z,25.08
2022-08-20T06:17:04.700Z,23.17
2022-08-20T06:19:33.278Z,23.83
2022-08-20T06:22:00.671Z,26.40
2022-08-20T06:24:27.471Z,25.63
2022-08-20T06:26:58.805Z,23.83
2022-08-20T06:29:26.178Z,24.85
2022-08-20T06:31:53.012Z,23.38
2022-08-20T06:34:19.755Z,24.27
2022-08-20T06:36:46.890Z,22.55
2022-08-20T06:39:14.743Z,24.10
2022-08-20T06:41:42.029Z,22.88
2022-08-20T06:44:08.656Z,24.00
2022-08-20T06:46:36.235Z,24.15
2022-08-20T06:49:04.608Z,24.35
2022-08-20T06:51:31.115Z,26.42
2022-08-20T06:53:57.813Z,25.38
2022-08-20T06:56:24.492Z,25.35
2022-08-20T06:58:51.068Z,25.33
2022-08-20T07:01:21.264Z,25.42
2022-08-20T07:03:55.869Z,25.85
2022-08-20T07:06:25.971Z,24.10
2022-08-20T07:08:53.675Z,26.92
2022-08-20T07:11:26.655Z,27.17
2022-08-20T07:13:54.391Z,26.33
2022-08-20T07:16:20.940Z,26.60
2022-08-20T07:18:47.507Z,29.17
2022-08-20T07:21:14.156Z,28.60
2022-08-20T07:23:42.293Z,29.25
2022-08-20T07:26:08.846Z,28.10
2022-08-20T07:28:35.416Z,28.10
2022-08-20T07:31:20.908Z,30.50
2022-08-20T07:33:47.624Z,29.77
2022-08-20T07:36:17.810Z,31.27
2022-08-20T07:38:47.112Z,28.58
2022-08-20T07:41:15.194Z,28.50
2022-08-20T07:43:43.330Z,29.15
2022-08-20T07:46:10.227Z,29.77
2022-08-20T07:48:42.028Z,30.75
2022-08-20T07:51:09.884Z,32.47
2022-08-20T07:53:39.072Z,32.67
2022-08-20T07:56:08.294Z,32.00
2022-08-20T07:58:36.812Z,31.27
2022-08-20T08:01:05.789Z,33.03
2022-08-20T08:03:39.537Z,32.13
2022-08-20T08:06:09.796Z,30.95
2022-08-20T08:08:41.480Z,32.03
2022-08-20T08:11:08.606Z,33.47
2022-08-20T08:13:38.699Z,33.25
2022-08-20T08:16:06.719Z,33.15
2022-08-20T08:18:40.630Z,31.02
2022-08-20T08:21:08.156Z,31.60
2022-08-20T08:23:35.047Z,31.42
2022-08-20T08:26:01.989Z,31.38
2022-08-20T08:28:29.777Z,31.05
2022-08-20T08:30:57.068Z,31.70
2022-08-20T08:33:29.432Z,31.08
2022-08-20T08:36:03.391Z,32.60
2022-08-20T08:38:32.501Z,31.92
2022-08-20T08:41:04.346Z,31.00
2022-08-20T08:43:31.245Z,32.17
2022-08-20T08:46:01.894Z,32.45
2022-08-20T08:48:34.451Z,32.00
2022-08-20T08:51:04.033Z,31.95
2022-08-20T08:53:37.962Z,33.22
2022-08-20T08:56:07.704Z,30.40
2022-08-20T08:58:35.437Z,31.45
2022-08-20T09:01:13.858Z,32.05
2022-08-20T09:03:57.978Z,32.85
2022-08-20T09:06:26.177Z,30.90
2022-08-20T09:08:54.869Z,30.88
2022-08-20T09:11:22.776Z,29.80
2022-08-20T09:13:49.679Z,29.58
2022-08-20T09:16:16.313Z,29.33
2022-08-20T09:18:42.996Z,28.65
2022-08-20T09:21:09.842Z,27.20
2022-08-20T09:23:36.473Z,28.20
2022-08-20T09:26:03.144Z,27.45
2022-08-20T09:28:32.284Z,27.52
2022-08-20T09:31:01.786Z,27.48
2022-08-20T09:33:28.381Z,25.05
2022-08-20T09:35:54.955Z,24.20
2022-08-20T09:38:21.534Z,26.05
2022-08-20T09:40:48.127Z,24.23
2022-08-20T09:43:14.692Z,23.10
2022-08-20T09:45:41.234Z,22.52
2022-08-20T09:48:10.293Z,23.80
2022-08-20T09:50:37.673Z,22.92
2022-08-20T09:53:05.584Z,22.08
2022-08-20T09:55:33.827Z,22.23
2022-08-20T09:58:03.591Z,21.35
2022-08-20T10:00:30.343Z,21.08
2022-08-20T10:02:57.084Z,17.88
2022-08-20T10:05:23.759Z,18.52
2022-08-20T10:07:50.379Z,19.55
2022-08-20T10:10:16.976Z,18.65
2022-08-20T10:12:43.603Z,18.52
2022-08-20T10:15:10.930Z,16.60
2022-08-20T10:17:42.269Z,16.48
2022-08-20T10:20:12.098Z,16.67
2022-08-20T10:22:38.713Z,15.50
2022-08-20T10:25:06.984Z,15.68
2022-08-20T10:27:34.219Z,14.32
2022-08-20T10:30:00.896Z,13.38
2022-08-20T10:32:27.440Z,14.40
2022-08-20T10:34:54.078Z,12.00
2022-08-20T10:37:23.534Z,11.45
2022-08-20T10:39:50.533Z,11.75
2022-08-20T10:42:17.196Z,12.43
2022-08-20T10:44:44.063Z,11.82
2022-08-20T10:47:23.123Z,10.20
2022-08-20T10:49:51.552Z,10.38
2022-08-20T10:52:18.443Z,9.82
2022-08-20T10:54:45.547Z,9.40
2022-08-20T10:57:24.197Z,9.25
2022-08-20T10:59:52.101Z,8.45
2022-08-20T11:02:19.705Z,9.23
2022-08-20T11:04:46.474Z,8.45
2022-08-20T11:07:21.815Z,7.45
2022-08-20T11:10:13.609Z,7.97
2022-08-20T11:12:40.650Z,7.68
2022-08-20T11:15:10.895Z,8.07
2022-08-20T11:17:41.672Z,7.47
2022-08-20T11:20:09.341Z,7.15
2022-08-20T11:22:36.440Z,6.30
2022-08-20T11:25:04.798Z,5.88
2022-08-20T11:27:34.861Z,6.07
2022-08-20T11:30:01.804Z,6.38
2022-08-20T11:32:28.662Z,6.68
2022-08-20T11:34:55.180Z,7.55
2022-08-20T11:37:24.197Z,6.78
2022-08-20T11:39:51.370Z,6.82
2022-08-20T11:42:18.552Z,7.85
2022-08-20T11:44:45.143Z,6.38
2022-08-20T11:47:22.061Z,6.05
2022-08-20T11:49:57.791Z,4.93
2022-08-20T11:52:24.357Z,4.82
2022-08-20T11:54:55.037Z,4.50
2022-08-20T11:57:27.913Z,4.10
2022-08-20T11:59:56.047Z,4.57
2022-08-20T12:02:22.781Z,4.00
2022-08-20T12:04:49.627Z,3.80
2022-08-20T12:07:18.925Z,4.00
2022-08-20T12:09:50.849Z,3.90
2022-08-20T12:12:20.585Z,4.38
2022-08-20T12:14:47.138Z,4.15
2022-08-20T12:17:19.717Z,4.30
2022-08-20T12:19:51.060Z,4.63
2022-08-20T12:22:25.326Z,4.10
2022-08-20T12:24:54.037Z,4.40
2022-08-20T12:27:29.302Z,4.60
2022-08-20T12:29:57.375Z,4.50
2022-08-20T12:32:25.823Z,5.43
2022-08-20T12:34:52.723Z,5.30
2022-08-20T12:37:21.713Z,5.53
2022-08-20T12:39:51.543Z,4.93
2022-08-20T12:42:18.437Z,5.63
2022-08-20T12:44:45.088Z,5.00
2022-08-20T12:47:20.248Z,4.47
2022-08-20T12:50:01.595Z,5.05
2022-08-20T12:52:29.881Z,5.03
2022-08-20T12:54:57.605Z,5.57
2022-08-20T12:57:35.601Z,4.95
2022-08-20T13:00:13.448Z,5.30
2022-08-20T13:02:41.379Z,4.93
2022-08-20T13:05:09.428Z,5.35
2022-08-20T13:07:36.215Z,6.18
2022-08-20T13:10:03.776Z,6.47
2022-08-20T13:12:30.452Z,6.43
2022-08-20T13:14:57.069Z,6.40
2022-08-20T13:17:38.235Z,7.03
2022-08-20T13:20:08.414Z,7.22
2022-08-20T13:22:35.185Z,7.85
2022-08-20T13:25:01.693Z,6.72
2022-08-20T13:27:28.202Z,7.43
2022-08-20T13:29:58.599Z,7.68
2022-08-20T13:32:26.185Z,8.68
2022-08-20T13:34:52.809Z,7.20
2022-08-20T13:37:25.520Z,6.78
2022-08-20T13:39:53.354Z,7.05
2022-08-20T13:42:20.355Z,7.25
2022-08-20T13:44:47.571Z,7.72
2022-08-20T13:47:21.536Z,7.72
2022-08-20T13:49:49.523Z,8.38
2022-08-20T13:52:16.977Z,7.78
2022-08-20T13:54:43.928Z,7.93
2022-08-20T13:57:17.030Z,8.43
2022-08-20T13:59:45.233Z,9.18
2022-08-20T14:02:12.589Z,9.55
2022-08-20T14:04:39.639Z,9.60
2022-08-20T14:07:14.828Z,10.00
2022-08-20T14:09:42.993Z,9.45
2022-08-20T14:12:10.641Z,9.55
2022-08-20T14:14:37.535Z,10.27
2022-08-20T14:17:21.048Z,10.82
2022-08-20T14:19:52.012Z,10.82
2022-08-20T14:22:19.192Z,11.00
2022-08-20T14:24:48.701Z,11.65
2022-08-20T14:27:18.422Z,11.77
2022-08-20T14:29:46.538Z,12.00
2022-08-20T14:32:13.366Z,11.43
2022-08-20T14:34:40.456Z,11.45
2022-08-20T14:37:22.031Z,11.73
2022-08-20T14:39:50.572Z,11.68
2022-08-20T14:42:17.579Z,13.00
2022-08-20T14:44:44.258Z,11.45
2022-08-20T14:47:15.327Z,11.95
2022-08-20T14:49:42.662Z,12.13
2022-08-20T14:52:09.509Z,12.60
2022-08-20T14:54:36.275Z,13.13
2022-08-20T14:57:03.174Z,11.93
2022-08-20T14:59:29.865Z,11.52
2022-08-20T15:01:56.409Z,13.35
2022-08-20T15:04:23.727Z,12.80
2022-08-20T15:06:52.615Z,12.50
2022-08-20T15:09:21.497Z,12.65
2022-08-20T15:11:48.084Z,12.23
2022-08-20T15:14:15.141Z,13.10
2022-08-20T15:16:45.094Z,13.93
2022-08-20T15:19:11.617Z,13.52
2022-08-20T15:21:45.426Z,12.93
2022-08-20T15:24:18.869Z,13.45
2022-08-20T15:26:45.792Z,13.45
2022-08-20T15:29:12.408Z,13.45
2022-08-20T15:31:49.838Z,13.23
2022-08-20T15:34:17.918Z,13.13
2022-08-20T15:36:44.729Z,13.48
2022-08-20T15:39:11.634Z,13.30
2022-08-20T15:41:38.167Z,12.73
2022-08-20T15:44:04.835Z,13.27
2022-08-20T15:46:36.053Z,13.07
2022-08-20T15:49:08.651Z,12.52
2022-08-20T15:51:43.021Z,13.82
2022-08-20T15:54:18.840Z,12.75
2022-08-20T15:57:07.735Z,13.90
2022-08-20T15:59:43.350Z,13.00
2022-08-20T16:02:26.043Z,12.77
2022-08-20T16:05:02.668Z,13.75
2022-08-20T16:07:47.840Z,14.13
2022-08-20T16:10:30.270Z,13.43
2022-08-20T16:12:59.112Z,13.05
2022-08-20T16:15:30.450Z,13.07
2022-08-20T16:18:06.519Z,14.25
2022-08-20T16:20:41.023Z,12.70
2022-08-20T16:23:08.724Z,13.13
2022-08-20T16:26:06.592Z,12.95
2022-08-20T16:29:05.427Z,12.55
2022-08-20T16:31:44.689Z,12.50
2022-08-20T16:34:32.174Z,17.75
2022-08-20T16:37:25.750Z,13.43
2022-08-20T16:39:57.395Z,12.30
2022-08-20T16:42:26.426Z,13.05
2022-08-20T16:44:56.820Z,13.30
2022-08-20T16:47:41.451Z,12.93
2022-08-20T16:50:19.985Z,13.50
2022-08-20T16:52:47.134Z,12.73
2022-08-20T16:55:14.471Z,13.45
2022-08-20T16:57:41.543Z,13.15
2022-08-20T17:00:16.914Z,12.95
2022-08-20T17:02:58.070Z,12.98
2022-08-20T17:05:28.011Z,12.73
2022-08-20T17:08:03.957Z,13.02
2022-08-20T17:10:37.549Z,12.98
2022-08-20T17:13:21.074Z,12.10
2022-08-20T17:16:27.994Z,12.23
2022-08-20T17:18:54.897Z,12.25
2022-08-20T17:21:27.565Z,13.25
2022-08-20T17:23:57.707Z,12.90
2022-08-20T17:26:37.659Z,12.65
2022-08-20T17:29:20.465Z,11.98
2022-08-20T17:31:53.199Z,12.80
2022-08-20T17:34:25.980Z,12.55
2022-08-20T17:36:55.864Z,12.43
2022-08-20T17:39:24.738Z,12.13
2022-08-20T17:42:07.722Z,9.18
2022-08-20T17:44:37.832Z,6.72
2022-08-20T17:47:07.801Z,7.25
2022-08-20T17:49:57.299Z,5.20
2022-08-20T17:52:33.147Z,5.25
2022-08-20T17:55:00.784Z,4.65
2022-08-20T17:57:33.236Z,4.63
2022-08-20T18:00:05.783Z,5.25
2022-08-20T18:02:33.492Z,4.30
2022-08-20T18:05:01.077Z,5.00
2022-08-20T18:07:31.793Z,4.80
2022-08-20T18:10:04.367Z,4.22
2022-08-20T18:12:41.802Z,5.38
2022-08-20T18:15:10.258Z,4.63
2022-08-20T18:17:42.794Z,4.22
2022-08-20T18:20:35.596Z,3.75
2022-08-20T18:23:12.122Z,3.53
2022-08-20T18:25:52.231Z,3.50
2022-08-20T18:28:22.216Z,3.60
2022-08-20T18:30:54.725Z,3.60
2022-08-20T18:33:31.277Z,3.72
2022-08-20T18:36:09.049Z,4.15
2022-08-20T18:38:38.632Z,3.38
2022-08-20T18:41:13.529Z,3.40
2022-08-20T18:43:41.044Z,3.00
2022-08-20T18:46:22.567Z,3.40
2022-08-20T18:49:02.710Z,4.10
2022-08-20T18:51:43.224Z,4.00
2022-08-20T18:54:28.882Z,4.72
2022-08-20T18:57:28.586Z,4.65
2022-08-20T19:00:16.881Z,4.97
2022-08-20T19:02:59.503Z,5.05
2022-08-20T19:05:50.317Z,5.20
2022-08-20T19:08:20.639Z,4.80
2022-08-20T19:10:57.862Z,4.97
2022-08-20T19:13:42.379Z,5.15
2022-08-20T19:16:14.751Z,4.65
2022-08-20T19:19:01.611Z,5.35
2022-08-20T19:21:35.666Z,4.97
2022-08-20T19:24:05.359Z,5.30
2022-08-20T19:26:33.329Z,5.00
2022-08-20T19:29:08.360Z,5.10
2022-08-20T19:31:35.527Z,5.47
2022-08-20T19:34:20.302Z,5.50
2022-08-20T19:37:04.549Z,6.28
2022-08-20T19:39:48.052Z,6.00
2022-08-20T19:42:19.134Z,5.68
2022-08-20T19:44:48.403Z,6.40
2022-08-20T19:47:23.569Z,5.80
2022-08-20T19:50:34.723Z,5.63
2022-08-20T19:53:10.653Z,6.50
2022-08-20T19:55:39.058Z,5.80
2022-08-20T19:58:11.726Z,6.20
2022-08-20T20:00:49.128Z,5.63
2022-08-20T20:03:19.654Z,5.43
2022-08-20T20:05:53.970Z,6.65
2022-08-20T20:08:22.416Z,6.80
2022-08-20T20:10:57.511Z,6.28
2022-08-20T20:13:25.451Z,6.00
2022-08-20T20:15:55.178Z,6.40
2022-08-20T20:18:25.293Z,5.53
2022-08-20T20:20:58.173Z,5.43
2022-08-20T20:23:27.898Z,5.57
2022-08-20T20:26:07.756Z,5.57
2022-08-20T20:28:48.538Z,5.03
2022-08-20T20:31:25.376Z,5.30
2022-08-20T20:33:55.489Z,5.60
2022-08-20T20:36:41.322Z,5.07
2022-08-20T20:39:14.334Z,5.20
2022-08-20T20:41:51.462Z,4.57
2022-08-20T20:44:25.359Z,4.50
2022-08-20T20:46:58.143Z,5.07
2022-08-20T20:49:26.780Z,4.68
2022-08-20T20:52:06.474Z,5.35
2022-08-20T20:54:44.580Z,5.03
2022-08-20T20:57:34.260Z,4.57
2022-08-20T21:00:09.397Z,5.63
2022-08-20T21:02:35.927Z,5.18
2022-08-20T21:05:02.536Z,5.25
2022-08-20T21:07:29.309Z,5.63
2022-08-20T21:09:56.757Z,5.45
2022-08-20T21:12:23.775Z,5.32
2022-08-20T21:14:50.535Z,5.25
2022-08-20T21:17:22.748Z,5.47
2022-08-20T21:19:51.003Z,4.65
2022-08-20T21:22:18.758Z,5.15
2022-08-20T21:24:45.842Z,5.25
2022-08-20T21:27:12.819Z,5.57
2022-08-20T21:29:39.896Z,5.93
2022-08-20T21:32:06.765Z,6.35
2022-08-20T21:34:33.380Z,5.25
2022-08-20T21:36:59.900Z,5.25
2022-08-20T21:39:27.089Z,4.88
2022-08-20T21:41:55.224Z,4.90
2022-08-20T21:44:25.668Z,4.53
2022-08-20T21:46:53.928Z,4.88
2022-08-20T21:49:21.415Z,5.25
2022-08-20T21:51:48.820Z,4.80
2022-08-20T21:54:16.115Z,5.40
2022-08-20T21:56:43.043Z,5.32
2022-08-20T21:59:09.998Z,5.07
2022-08-20T22:01:38.269Z,6.00
2022-08-20T22:04:06.560Z,5.32
2022-08-20T22:06:33.177Z,6.25
2022-08-20T22:08:59.914Z,5.75
2022-08-20T22:11:26.831Z,5.38
2022-08-20T22:13:53.602Z,5.55
2022-08-20T22:16:21.618Z,5.60
2022-08-20T22:18:49.664Z,5.75
2022-08-20T22:21:27.273Z,5.28
2022-08-20T22:23:57.067Z,5.80
2022-08-20T22:26:23.630Z,5.90
2022-08-20T22:28:53.877Z,6.07
2022-08-20T22:31:24.308Z,6.68
2022-08-20T22:33:50.888Z,6.00
2022-08-20T22:36:17.855Z,6.30
2022-08-20T22:38:44.960Z,5.65
2022-08-20T22:41:13.770Z,5.72
2022-08-20T22:43:43.377Z,5.60
2022-08-20T22:46:15.118Z,6.13
2022-08-20T22:48:42.805Z,5.72
2022-08-20T22:51:11.046Z,5.95
2022-08-20T22:53:38.865Z,5.50
2022-08-20T22:56:05.562Z,6.00
2022-08-20T22:58:32.426Z,5.85
2022-08-20T23:00:59.726Z,5.65
2022-08-20T23:03:39.275Z,6.20
2022-08-20T23:06:08.088Z,6.60
2022-08-20T23:08:34.640Z,5.82
2022-08-20T23:11:01.478Z,6.47
2022-08-20T23:13:28.100Z,5.78
2022-08-20T23:15:54.731Z,5.88
2022-08-20T23:18:21.498Z,5.97
2022-08-20T23:20:53.884Z,6.93
2022-08-20T23:23:20.932Z,6.07
2022-08-20T23:25:47.816Z,6.82
2022-08-20T23:28:17.038Z,6.13
2022-08-20T23:30:43.530Z,6.40
2022-08-20T23:33:10.143Z,5.72
2022-08-20T23:35:38.219Z,5.82
2022-08-20T23:38:05.542Z,6.10
2022-08-20T23:40:32.209Z,5.90
2022-08-20T23:43:00.062Z,5.40
2022-08-20T23:45:27.497Z,5.93
2022-08-20T23:47:54.162Z,5.93
2022-08-20T23:50:24.762Z,5.43
2022-08-20T23:52:52.327Z,5.35
2022-08-20T23:55:19.519Z,5.57
2022-08-20T23:57:46.153Z,5.32
